createdAt,value
2023-02-17T00:00:33.302Z,5.54
2023-02-17T00:03:34.936Z,5.52
2023-02-17T00:06:36.663Z,5.51
2023-02-17T00:09:38.189Z,5.53
2023-02-17T00:12:39.812Z,5.55
2023-02-17T00:15:41.374Z,5.56
2023-02-17T00:18:43.010Z,5.58
2023-02-17T00:21:44.608Z,5.60
2023-02-17T00:24:46.309Z,5.61
2023-02-17T00:27:47.866Z,5.62
2023-02-17T00:30:49.462Z,5.62
2023-02-17T00:33:54.211Z,5.62
2023-02-17T00:36:55.831Z,5.62
2023-02-17T00:39:57.508Z,5.60
2023-02-17T00:42:59.120Z,5.55
2023-02-17T00:46:04.192Z,5.50
2023-02-17T00:49:06.011Z,5.43
2023-02-17T00:52:07.625Z,5.37
2023-02-17T00:55:09.314Z,5.32
2023-02-17T00:58:11.047Z,5.27
2023-02-17T01:01:12.726Z,5.19
2023-02-17T01:04:15.146Z,5.15
2023-02-17T01:07:16.783Z,5.10
2023-02-17T01:10:18.516Z,5.07
2023-02-17T01:13:20.194Z,5.05
2023-02-17T01:16:26.110Z,5.00
2023-02-17T01:19:27.627Z,4.96
2023-02-17T01:22:29.653Z,4.91
2023-02-17T01:25:31.493Z,4.89
2023-02-17T01:28:33.246Z,4.86
2023-02-17T01:31:34.958Z,4.80
2023-02-17T01:34:37.572Z,4.77
2023-02-17T01:37:41.132Z,4.70
2023-02-17T01:40:49.773Z,4.63
2023-02-17T01:44:10.109Z,4.60
2023-02-17T01:47:12.563Z,4.54
2023-02-17T01:50:14.753Z,4.50
2023-02-17T01:53:22.092Z,4.44
2023-02-17T01:56:23.585Z,4.43
2023-02-17T01:59:25.158Z,4.40
2023-02-17T02:02:30.179Z,4.38
2023-02-17T02:05:32.026Z,4.35
2023-02-17T02:08:41.816Z,4.31
2023-02-17T02:11:43.413Z,4.25
2023-02-17T02:14:45.004Z,4.12
2023-02-17T02:18:03.927Z,3.98
2023-02-17T02:21:39.484Z,3.86
2023-02-17T02:25:00.029Z,3.74
2023-02-17T02:28:29.670Z,3.66
2023-02-17T02:31:46.463Z,3.58
2023-02-17T02:34:53.835Z,3.52
2023-02-17T02:38:06.710Z,3.46
2023-02-17T02:41:17.358Z,3.42
2023-02-17T02:44:21.305Z,3.37
2023-02-17T02:47:45.959Z,3.34
2023-02-17T02:50:58.029Z,3.32
2023-02-17T02:54:19.953Z,3.25
2023-02-17T02:57:41.010Z,3.17
2023-02-17T03:00:54.202Z,3.07
2023-02-17T03:04:19.023Z,2.96
2023-02-17T03:07:32.152Z,2.90
2023-02-17T03:10:33.700Z,2.86
2023-02-17T03:13:39.403Z,2.80
2023-02-17T03:16:42.901Z,2.77
2023-02-17T03:19:47.815Z,2.75
2023-02-17T03:22:50.769Z,2.75
2023-02-17T03:25:52.372Z,2.77
2023-02-17T03:28:54.010Z,2.80
2023-02-17T03:31:55.831Z,2.84
2023-02-17T03:34:57.488Z,2.85
2023-02-17T03:37:59.085Z,2.78
2023-02-17T03:41:00.630Z,2.74
2023-02-17T03:44:02.220Z,2.68
2023-02-17T03:47:03.965Z,2.62
2023-02-17T03:50:06.259Z,2.54
2023-02-17T03:53:07.867Z,2.47
2023-02-17T03:56:10.108Z,2.44
2023-02-17T03:59:11.654Z,2.42
2023-02-17T04:02:13.275Z,2.42
2023-02-17T04:05:14.879Z,2.41
2023-02-17T04:08:16.448Z,2.40
2023-02-17T04:11:18.057Z,2.34
2023-02-17T04:14:19.608Z,2.27
2023-02-17T04:17:21.217Z,2.24
2023-02-17T04:20:22.756Z,2.20
2023-02-17T04:23:24.326Z,2.21
2023-02-17T04:26:25.815Z,2.22
2023-02-17T04:29:27.410Z,2.21
2023-02-17T04:32:29.101Z,2.23
2023-02-17T04:35:30.692Z,2.23
2023-02-17T04:38:32.830Z,2.20
2023-02-17T04:41:34.420Z,2.13
2023-02-17T04:44:35.982Z,2.09
2023-02-17T04:47:37.558Z,2.05
2023-02-17T04:50:39.166Z,1.97
2023-02-17T04:53:40.696Z,1.86
2023-02-17T04:56:42.245Z,1.76
2023-02-17T04:59:44.003Z,1.64
2023-02-17T05:02:45.591Z,1.54
2023-02-17T05:05:47.241Z,1.45
2023-02-17T05:08:50.626Z,1.39
2023-02-17T05:11:52.177Z,1.34
2023-02-17T05:14:53.744Z,1.31
2023-02-17T05:17:55.256Z,1.29
2023-02-17T05:20:56.871Z,1.29
2023-02-17T05:23:58.634Z,1.29
2023-02-17T05:27:00.227Z,1.31
2023-02-17T05:30:01.912Z,1.31
2023-02-17T05:33:03.548Z,1.29
2023-02-17T05:36:09.187Z,1.28
2023-02-17T05:39:10.839Z,1.26
2023-02-17T05:42:12.526Z,1.28
2023-02-17T05:45:14.222Z,1.32
2023-02-17T05:48:15.808Z,1.37
2023-02-17T05:51:17.506Z,1.42
2023-02-17T05:54:19.138Z,1.44
2023-02-17T05:57:20.686Z,1.45
2023-02-17T06:00:22.397Z,1.45
2023-02-17T06:03:23.960Z,1.47
2023-02-17T06:06:25.477Z,1.46
2023-02-17T06:09:27.141Z,1.44
2023-02-17T06:12:28.718Z,1.45
2023-02-17T06:15:30.505Z,1.45
2023-02-17T06:18:32.105Z,1.47
2023-02-17T06:21:33.779Z,1.47
2023-02-17T06:24:35.425Z,1.46
2023-02-17T06:27:37.014Z,1.45
2023-02-17T06:30:38.637Z,1.45
2023-02-17T06:33:40.201Z,1.43
2023-02-17T06:36:41.856Z,1.39
2023-02-17T06:39:43.465Z,1.42
2023-02-17T06:42:45.020Z,1.46
2023-02-17T06:45:46.835Z,1.48
2023-02-17T06:48:48.510Z,1.50
2023-02-17T06:51:50.169Z,1.54
2023-02-17T06:54:51.788Z,1.58
2023-02-17T06:57:53.418Z,1.62
2023-02-17T07:00:54.936Z,1.64
2023-02-17T07:03:56.993Z,1.62
2023-02-17T07:06:58.627Z,1.60
2023-02-17T07:10:00.264Z,1.63
2023-02-17T07:13:01.808Z,1.69
2023-02-17T07:16:03.736Z,1.76
2023-02-17T07:19:05.431Z,1.85
2023-02-17T07:22:07.056Z,1.92
2023-02-17T07:25:08.593Z,1.97
2023-02-17T07:28:10.589Z,2.01
2023-02-17T07:31:15.432Z,1.99
2023-02-17T07:34:16.943Z,1.97
2023-02-17T07:37:21.803Z,2.01
2023-02-17T07:40:23.451Z,2.05
2023-02-17T07:43:25.104Z,2.11
2023-02-17T07:46:26.975Z,2.16
2023-02-17T07:49:28.662Z,2.18
2023-02-17T07:52:30.279Z,2.24
2023-02-17T07:55:31.931Z,2.34
2023-02-17T07:58:34.952Z,2.47
2023-02-17T08:01:36.701Z,2.56
2023-02-17T08:04:38.394Z,2.65
2023-02-17T08:07:39.972Z,2.74
2023-02-17T08:10:59.935Z,2.85
2023-02-17T08:14:02.160Z,2.96
2023-02-17T08:17:03.793Z,3.02
2023-02-17T08:20:08.972Z,3.11
2023-02-17T08:23:11.122Z,3.25
2023-02-17T08:26:12.753Z,3.36
2023-02-17T08:29:15.026Z,3.52
2023-02-17T08:32:17.325Z,3.65
2023-02-17T08:35:22.452Z,3.79
2023-02-17T08:38:24.097Z,3.96
2023-02-17T08:41:33.999Z,4.12
2023-02-17T08:44:36.217Z,4.26
2023-02-17T08:47:37.806Z,4.35
2023-02-17T08:50:39.424Z,4.45
2023-02-17T08:53:41.558Z,4.56
2023-02-17T08:56:43.876Z,4.64
2023-02-17T08:59:48.128Z,4.76
2023-02-17T09:02:50.571Z,4.90
2023-02-17T09:05:58.515Z,5.10
2023-02-17T09:09:00.611Z,5.33
2023-02-17T09:12:02.371Z,5.58
2023-02-17T09:15:04.613Z,5.77
2023-02-17T09:18:06.492Z,5.96
2023-02-17T09:21:10.357Z,6.15
2023-02-17T09:24:12.339Z,6.35
2023-02-17T09:27:14.178Z,6.52
2023-02-17T09:30:15.826Z,6.66
2023-02-17T09:33:17.459Z,6.76
2023-02-17T09:36:24.609Z,6.88
2023-02-17T09:39:26.551Z,6.97
2023-02-17T09:42:28.747Z,7.01
2023-02-17T09:45:35.036Z,7.11
2023-02-17T09:48:37.174Z,7.26
2023-02-17T09:52:00.454Z,7.41
2023-02-17T09:55:13.842Z,7.60
2023-02-17T09:58:27.995Z,7.77
2023-02-17T10:01:31.381Z,7.98
2023-02-17T10:04:39.192Z,8.16
2023-02-17T10:07:47.434Z,8.33
2023-02-17T10:11:00.788Z,8.51
2023-02-17T10:14:15.126Z,8.71
2023-02-17T10:17:55.750Z,8.85
2023-02-17T10:21:07.284Z,9.01
2023-02-17T10:24:09.985Z,9.19
2023-02-17T10:27:28.600Z,9.38
2023-02-17T10:30:42.221Z,9.58
2023-02-17T10:33:56.492Z,9.74
2023-02-17T10:37:01.728Z,9.87
2023-02-17T10:40:19.735Z,10.05
2023-02-17T10:43:32.071Z,10.23
2023-02-17T10:46:34.993Z,10.39
2023-02-17T10:49:40.173Z,10.46
2023-02-17T10:52:42.184Z,10.60
2023-02-17T10:55:53.548Z,10.78
2023-02-17T10:59:02.988Z,11.02
2023-02-17T11:02:25.380Z,11.23
2023-02-17T11:05:30.017Z,11.39
2023-02-17T11:08:44.770Z,11.57
2023-02-17T11:11:59.003Z,11.71
2023-02-17T11:15:03.749Z,11.84
2023-02-17T11:18:18.649Z,11.99
2023-02-17T11:21:20.504Z,12.07
2023-02-17T11:24:22.515Z,12.13
2023-02-17T11:27:25.348Z,12.23
2023-02-17T11:30:29.678Z,12.29
2023-02-17T11:33:37.560Z,12.33
2023-02-17T11:36:39.192Z,12.41
2023-02-17T11:39:49.318Z,12.55
2023-02-17T11:42:58.582Z,12.62
2023-02-17T11:46:09.285Z,12.68
2023-02-17T11:49:45.037Z,12.77
2023-02-17T11:52:49.786Z,12.88
2023-02-17T11:56:30.048Z,13.04
2023-02-17T11:59:40.531Z,13.17
2023-02-17T12:03:10.307Z,13.30
2023-02-17T12:06:22.693Z,13.40
2023-02-17T12:09:32.686Z,13.49
2023-02-17T12:13:08.309Z,13.56
2023-02-17T12:16:27.545Z,13.69
2023-02-17T12:19:31.998Z,13.81
2023-02-17T12:22:41.724Z,13.94
2023-02-17T12:26:19.534Z,14.03
2023-02-17T12:30:00.426Z,14.13
2023-02-17T12:33:19.964Z,14.24
2023-02-17T12:36:23.649Z,14.32
2023-02-17T12:39:31.079Z,14.38
2023-02-17T12:42:36.501Z,14.42
2023-02-17T12:45:43.504Z,14.50
2023-02-17T12:48:50.231Z,14.58
2023-02-17T12:51:59.973Z,14.64
2023-02-17T12:55:05.635Z,14.69
2023-02-17T12:58:08.205Z,14.71
2023-02-17T13:01:12.700Z,14.78
2023-02-17T13:04:17.653Z,14.93
2023-02-17T13:07:34.322Z,14.98
2023-02-17T13:10:38.236Z,15.04
2023-02-17T13:13:39.903Z,15.15
2023-02-17T13:16:45.679Z,15.23
2023-02-17T13:19:47.333Z,15.33
2023-02-17T13:22:49.145Z,15.44
2023-02-17T13:26:04.337Z,15.54
2023-02-17T13:29:20.608Z,15.65
2023-02-17T13:32:27.964Z,15.74
2023-02-17T13:35:34.137Z,15.85
2023-02-17T13:38:35.960Z,15.95
2023-02-17T13:41:48.336Z,16.07
2023-02-17T13:44:51.361Z,16.15
2023-02-17T13:47:55.946Z,16.12
2023-02-17T13:50:59.507Z,16.05
2023-02-17T13:54:24.140Z,15.97
2023-02-17T13:57:30.605Z,15.82
2023-02-17T14:00:32.402Z,15.67
2023-02-17T14:03:42.633Z,15.55
2023-02-17T14:06:44.366Z,15.42
2023-02-17T14:09:53.679Z,15.32
2023-02-17T14:12:55.848Z,15.30
2023-02-17T14:15:59.839Z,15.34
2023-02-17T14:19:21.642Z,15.35
2023-02-17T14:22:32.192Z,15.34
2023-02-17T14:25:36.547Z,15.29
2023-02-17T14:28:38.058Z,15.28
2023-02-17T14:31:49.570Z,15.28
2023-02-17T14:34:51.252Z,15.32
2023-02-17T14:37:52.957Z,15.29
2023-02-17T14:40:55.958Z,15.23
2023-02-17T14:43:58.102Z,15.22
2023-02-17T14:47:00.279Z,15.23
2023-02-17T14:50:01.921Z,15.21
2023-02-17T14:53:03.498Z,15.20
2023-02-17T14:56:25.498Z,15.21
2023-02-17T14:59:27.092Z,15.20
2023-02-17T15:02:30.301Z,15.18
2023-02-17T15:05:31.988Z,15.16
2023-02-17T15:08:35.038Z,15.16
2023-02-17T15:11:37.088Z,15.17
2023-02-17T15:14:38.667Z,15.20
2023-02-17T15:17:40.229Z,15.24
2023-02-17T15:20:43.764Z,15.23
2023-02-17T15:23:45.322Z,15.19
2023-02-17T15:26:48.129Z,15.16
2023-02-17T15:29:49.777Z,15.12
2023-02-17T15:32:51.434Z,15.08
2023-02-17T15:35:54.048Z,15.10
2023-02-17T15:38:55.664Z,15.15
2023-02-17T15:41:59.340Z,15.19
2023-02-17T15:45:00.947Z,15.23
2023-02-17T15:48:08.623Z,15.25
2023-02-17T15:51:13.157Z,15.22
2023-02-17T15:54:19.117Z,15.23
2023-02-17T15:57:24.882Z,15.22
2023-02-17T16:00:29.051Z,15.19
2023-02-17T16:03:30.698Z,15.16
2023-02-17T16:06:32.338Z,15.12
2023-02-17T16:09:34.028Z,15.04
2023-02-17T16:12:35.711Z,14.95
2023-02-17T16:15:38.448Z,14.85
2023-02-17T16:18:40.162Z,14.71
2023-02-17T16:21:41.762Z,14.51
2023-02-17T16:24:43.405Z,14.34
2023-02-17T16:27:46.292Z,14.21
2023-02-17T16:30:49.647Z,14.06
2023-02-17T16:33:51.848Z,13.90
2023-02-17T16:36:56.385Z,13.73
2023-02-17T16:39:57.981Z,13.56
2023-02-17T16:42:59.999Z,13.40
2023-02-17T16:46:03.737Z,13.23
2023-02-17T16:49:31.993Z,13.09
2023-02-17T16:52:34.097Z,12.94
2023-02-17T16:55:36.642Z,12.82
2023-02-17T16:58:38.855Z,12.72
2023-02-17T17:01:40.489Z,12.62
2023-02-17T17:04:42.135Z,12.52
2023-02-17T17:07:43.991Z,12.40
2023-02-17T17:10:46.193Z,12.30
2023-02-17T17:13:47.791Z,12.18
2023-02-17T17:16:52.745Z,12.08
2023-02-17T17:19:54.686Z,12.01
2023-02-17T17:22:56.722Z,11.93
2023-02-17T17:25:58.913Z,11.84
2023-02-17T17:29:01.020Z,11.73
2023-02-17T17:32:02.725Z,11.64
2023-02-17T17:35:04.542Z,11.56
2023-02-17T17:38:06.224Z,11.51
2023-02-17T17:41:11.770Z,11.44
2023-02-17T17:44:13.510Z,11.36
2023-02-17T17:47:29.516Z,11.27
2023-02-17T17:50:31.696Z,11.15
2023-02-17T17:53:33.306Z,11.02
2023-02-17T17:56:38.853Z,10.90
2023-02-17T17:59:40.490Z,10.82
2023-02-17T18:02:42.552Z,10.74
2023-02-17T18:05:44.267Z,10.65
2023-02-17T18:08:46.889Z,10.58
2023-02-17T18:11:49.803Z,10.48
2023-02-17T18:14:53.320Z,10.37
2023-02-17T18:17:55.163Z,10.27
2023-02-17T18:20:56.850Z,10.16
2023-02-17T18:23:58.429Z,10.08
2023-02-17T18:27:00.004Z,10.02
2023-02-17T18:30:01.684Z,9.94
2023-02-17T18:33:03.368Z,9.89
2023-02-17T18:36:24.197Z,9.84
2023-02-17T18:39:26.020Z,9.81
2023-02-17T18:42:27.602Z,9.81
2023-02-17T18:45:29.260Z,9.77
2023-02-17T18:48:31.737Z,9.75
2023-02-17T18:51:33.336Z,9.71
2023-02-17T18:54:34.903Z,9.64
2023-02-17T18:57:36.637Z,9.57
2023-02-17T19:00:38.232Z,9.52
2023-02-17T19:03:39.793Z,9.49
2023-02-17T19:06:41.669Z,9.45
2023-02-17T19:09:43.358Z,9.39
2023-02-17T19:12:44.934Z,9.29
2023-02-17T19:15:46.569Z,9.20
2023-02-17T19:18:48.328Z,9.12
2023-02-17T19:21:50.017Z,9.05
2023-02-17T19:24:53.476Z,8.99
2023-02-17T19:27:55.036Z,8.95
2023-02-17T19:30:57.690Z,8.93
2023-02-17T19:33:59.262Z,8.93
2023-02-17T19:37:01.021Z,8.90
2023-02-17T19:40:02.726Z,8.84
2023-02-17T19:43:04.349Z,8.78
2023-02-17T19:46:06.946Z,8.72
2023-02-17T19:49:08.761Z,8.63
2023-02-17T19:52:10.699Z,8.56
2023-02-17T19:55:12.519Z,8.49
2023-02-17T19:58:14.132Z,8.46
2023-02-17T20:01:19.388Z,8.41
2023-02-17T20:04:21.105Z,8.36
2023-02-17T20:07:23.052Z,8.33
2023-02-17T20:10:24.808Z,8.34
2023-02-17T20:13:28.626Z,8.33
2023-02-17T20:16:32.142Z,8.27
2023-02-17T20:19:38.506Z,8.19
2023-02-17T20:22:40.523Z,8.07
2023-02-17T20:25:42.160Z,7.93
2023-02-17T20:28:44.120Z,7.70
2023-02-17T20:31:45.824Z,7.53
2023-02-17T20:34:47.543Z,7.48
2023-02-17T20:37:49.100Z,7.44
2023-02-17T20:40:50.718Z,7.40
2023-02-17T20:43:53.018Z,7.40
2023-02-17T20:46:55.263Z,7.38
2023-02-17T20:49:56.837Z,7.36
2023-02-17T20:52:58.514Z,7.35
2023-02-17T20:56:00.197Z,7.37
2023-02-17T20:59:02.048Z,7.42
2023-02-17T21:02:03.688Z,7.43
2023-02-17T21:05:05.463Z,7.40
2023-02-17T21:08:07.094Z,7.31
2023-02-17T21:11:08.762Z,7.22
2023-02-17T21:14:10.438Z,7.12
2023-02-17T21:17:12.226Z,7.01
2023-02-17T21:20:19.431Z,6.93
2023-02-17T21:23:22.643Z,6.84
2023-02-17T21:26:24.632Z,6.79
2023-02-17T21:29:26.275Z,6.73
2023-02-17T21:32:27.863Z,6.67
2023-02-17T21:35:29.473Z,6.62
2023-02-17T21:38:31.027Z,6.61
2023-02-17T21:41:32.725Z,6.59
2023-02-17T21:44:52.530Z,6.54
2023-02-17T21:47:54.241Z,6.40
2023-02-17T21:51:07.506Z,6.28
2023-02-17T21:54:09.777Z,6.14
2023-02-17T21:57:11.402Z,6.02
2023-02-17T22:00:13.741Z,5.95
2023-02-17T22:03:15.367Z,5.90
2023-02-17T22:06:32.466Z,5.87
2023-02-17T22:09:34.020Z,5.84
2023-02-17T22:12:37.158Z,5.81
2023-02-17T22:15:39.163Z,5.78
2023-02-17T22:18:41.314Z,5.77
2023-02-17T22:21:43.205Z,5.72
2023-02-17T22:24:44.826Z,5.67
2023-02-17T22:27:46.519Z,5.66
2023-02-17T22:30:52.847Z,5.67
2023-02-17T22:33:56.618Z,5.65
2023-02-17T22:36:58.209Z,5.60
2023-02-17T22:40:00.329Z,5.52
2023-02-17T22:43:02.107Z,5.48
2023-02-17T22:46:04.320Z,5.48
2023-02-17T22:49:06.179Z,5.49
2023-02-17T22:52:07.846Z,5.49
2023-02-17T22:55:09.699Z,5.47
2023-02-17T22:58:11.254Z,5.47
2023-02-17T23:01:20.601Z,5.40
2023-02-17T23:04:22.185Z,5.36
2023-02-17T23:07:24.203Z,5.35
2023-02-17T23:10:25.726Z,5.33
2023-02-17T23:13:27.283Z,5.31
2023-02-17T23:16:28.842Z,5.28
2023-02-17T23:19:30.944Z,5.22
2023-02-17T23:22:32.628Z,5.10
2023-02-17T23:25:34.436Z,4.94
2023-02-17T23:28:36.126Z,4.79
2023-02-17T23:31:38.373Z,4.68
2023-02-17T23:34:40.297Z,4.60
2023-02-17T23:37:42.050Z,4.54
2023-02-17T23:40:47.170Z,4.51
2023-02-17T23:43:48.745Z,4.52
2023-02-17T23:46:50.395Z,4.53
2023-02-17T23:49:52.005Z,4.51
2023-02-17T23:52:53.576Z,4.49
2023-02-17T23:56:02.999Z,4.47
2023-02-17T23:59:04.705Z,4.40
